Latest Weather Observations for Barimunya

IDW60801

Issued at 10:03 pm WST Tuesday 12 December 2017 (issued every 30 minutes, with the page automatically refreshed every 10 minutes)

About weather observations | Map of weather stations | Latest weather observations for WA | Other Formats
Station Details ID: 505053 Name: BARIMUNYA Lat: -22.67 Lon: 119.16 Height: 629.17 m
Data from the previous 72 hours. | See also: Recent months for locations in Western Australia
Date/Time
WST
Temp
°C
App
Temp
°C
Dew
Point
°C
Rel
Hum
%
Delta-T
°C
Wind Press
QNH
hPa
Press
MSL
hPa
Rain since
9am
mm
Dir  Spd
km/h
Gust
km/h
Spd
kts
Gust
kts
12/10:00pm 32.2 28.7 10.3 26 12.9 NW 19 30 10 16 1012.7 1007.2 0.0
12/09:30pm 32.5 28.7 9.9 25 13.3 NNW 20 28 11 15 1012.5 1007.0 0.0
12/09:00pm 32.9 28.3 9.7 24 13.6 NNW 24 33 13 18 1012.1 1006.7 0.0
12/08:30pm 33.3 29.2 10.0 24 13.7 NNW 22 35 12 19 1011.9 1006.5 0.0
12/08:00pm 33.6 28.6 9.6 23 14.1 NNW 26 39 14 21 1011.7 1006.2 0.0
12/07:30pm 34.1 28.7 9.4 22 14.5 NNW 28 41 15 22 1011.3 1005.8 0.0
12/07:00pm 34.5 29.3 9.0 21 14.9 NNW 26 39 14 21 1011.1 1005.6 0.0
12/06:30pm 35.1 29.1 8.8 20 15.3 NNW 30 43 16 23 1010.9 1005.4 0.0
12/06:00pm 36.0 30.6 9.5 20 15.7 NNW 28 41 15 22 1010.7 1005.2 0.0
12/05:30pm 36.5 31.4 9.2 19 16.1 NNW 26 39 14 21 1010.4 1004.9 0.0
12/05:00pm 37.0 31.8 8.8 18 16.6 NNW 26 37 14 20 1010.2 1004.7 0.0
12/04:31pm 37.2 31.4 8.1 17 16.9 NNW 28 46 15 25 1010.3 - 0.0
12/04:30pm 37.3 31.8 9.0 18 16.7 NNW 28 46 15 25 1010.2 1004.7 0.0
12/04:03pm 37.1 31.5 8.8 18 16.6 NNW 28 46 15 25 1010.4 1004.9 0.0
12/04:00pm 38.2 33.4 8.9 17 17.4 NNW 24 46 13 25 1010.3 1004.8 0.0
12/03:30pm 37.6 31.9 8.4 17 17.1 NW 28 44 15 24 1010.6 1005.1 0.0
12/03:04pm 37.8 31.9 7.7 16 17.5 NW 28 46 15 25 1010.8 - 0.0
12/03:00pm 38.7 33.2 9.3 17 17.5 NW 28 48 15 26 1010.7 1005.2 0.0
12/02:32pm 37.4 31.7 8.2 17 17.0 NW 28 50 15 27 1011.1 1005.6 0.0
12/02:30pm 38.1 32.9 8.8 17 17.3 NW 26 44 14 24 1011.0 1005.5 0.0
12/02:02pm 37.8 32.2 8.6 17 17.2 NW 28 46 15 25 1011.3 1005.8 0.0
12/02:00pm 37.4 31.5 9.1 18 16.7 NW 30 46 16 25 1011.4 1005.9 0.0
12/01:33pm 38.7 33.5 10.1 18 17.2 NW 28 46 15 25 1011.4 1005.9 0.0
12/01:30pm 37.2 31.5 9.7 19 16.4 NNW 30 46 16 25 1011.6 1006.1 0.0
12/01:06pm 38.1 33.0 10.5 19 16.7 NW 28 46 15 25 1011.9 1006.5 0.0
12/01:00pm 37.2 31.6 8.9 18 16.7 WNW 28 43 15 23 1012.0 1006.6 0.0
12/12:30pm 35.9 29.7 10.2 21 15.3 NW 33 50 18 27 1012.6 1007.1 0.0
12/12:00pm 36.6 31.5 10.7 21 15.6 NW 28 50 15 27 1012.8 1007.3 0.0
12/11:54am 36.8 31.0 10.9 21 15.7 NW 32 50 17 27 1013.0 1007.5 0.0
12/11:30am 36.0 30.2 10.9 22 15.2 NNW 32 46 17 25 1013.1 1007.6 0.0
12/11:00am 35.3 31.3 11.7 24 14.4 NNW 24 39 13 21 1013.3 1007.8 0.0
12/10:30am 34.7 29.8 11.2 24 14.2 NW 28 43 15 23 1013.7 1008.3 0.0
12/10:00am 34.1 30.7 11.3 25 13.7 NW 20 28 11 15 1014.2 1008.7 0.0
12/09:30am 32.5 30.0 12.2 29 12.3 NNW 17 26 9 14 1014.6 1009.1 0.0
12/09:00am 31.2 30.2 13.5 34 10.9 NW 11 20 6 11 1014.9 1009.5 0.0
12/08:30am 29.7 28.7 13.5 37 9.9 W 11 20 6 11 1015.1 1009.7 0.0
12/08:00am 29.8 29.4 14.0 38 9.8 W 9 15 5 8 1015.3 1009.9 0.0
12/07:30am 28.5 27.3 14.0 41 8.9 W 13 19 7 10 1015.3 1009.9 0.0
12/07:00am 27.9 26.9 14.5 44 8.3 W 13 17 7 9 1015.1 1009.7 0.0
12/06:30am 27.3 26.3 14.7 46 7.8 WNW 13 17 7 9 1014.8 1009.3 0.0
12/06:00am 26.3 25.8 15.0 49 7.0 WNW 11 15 6 8 1014.6 1009.1 0.0
12/05:30am 25.7 25.2 14.8 51 6.7 WNW 11 15 6 8 1014.3 1008.8 0.0
12/05:00am 25.6 24.6 14.7 51 6.7 WNW 13 17 7 9 1013.8 1008.4 0.0
12/04:30am 25.3 24.7 14.7 51 6.5 WNW 11 13 6 7 1013.5 1008.1 0.0
12/04:00am 25.7 24.8 14.8 51 6.7 WNW 13 15 7 8 1013.2 1007.7 0.0
12/03:30am 26.5 25.6 14.9 49 7.2 WNW 13 17 7 9 1013.2 1007.7 0.0
12/03:00am 26.2 26.5 14.6 48 7.1 NW 6 7 3 4 1013.2 1007.7 0.0
12/02:30am 26.8 25.9 14.9 48 7.4 NW 13 17 7 9 1013.2 1007.7 0.0
12/02:00am 26.8 26.8 15.2 49 7.2 WNW 9 13 5 7 1013.1 1007.6 0.0
12/01:30am 27.6 26.5 15.3 47 7.7 NNW 15 24 8 13 1013.3 1007.8 0.0
12/01:00am 27.9 27.5 15.2 46 7.9 NW 11 20 6 11 1013.4 1008.0 0.0
12/12:30am 28.3 26.5 15.6 46 8.0 NNW 19 28 10 15 1013.5 1008.1 0.0
12/12:00am 28.9 26.3 15.8 45 8.3 NNW 24 32 13 17 1013.8 1008.4 0.0
 
Date/Time
WST
Temp
°C
App
Temp
°C
Dew
Point
°C
Rel
Hum
%
Delta-T
°C
Wind Press
QNH
hPa
Press
MSL
hPa
Rain since
9am
mm
Dir  Spd
km/h
Gust
km/h
Spd
kts
Gust
kts
11/11:30pm 29.3 26.5 15.4 42 8.7 NNW 24 32 13 17 1014.0 1008.5 0.0
11/11:00pm 29.9 27.0 15.2 41 9.2 NNW 24 35 13 19 1014.2 1008.7 0.0
11/10:30pm 30.3 28.1 14.8 39 9.7 NNW 20 30 11 16 1014.4 1008.9 0.0
11/10:00pm 30.7 27.4 13.9 36 10.4 NNW 24 35 13 19 1014.3 1008.8 0.0
11/09:30pm 31.4 27.5 13.2 33 11.2 NNW 26 35 14 19 1014.3 1008.8 0.0
11/09:00pm 31.9 28.6 12.7 31 11.7 NNW 22 35 12 19 1014.1 1008.6 0.0
11/08:30pm 32.5 29.0 12.2 29 12.3 NNW 22 35 12 19 1013.8 1008.4 0.0
11/08:00pm 32.9 29.2 11.4 27 12.9 NNW 22 28 12 15 1013.7 1008.3 0.0
11/07:30pm 33.3 28.7 11.2 26 13.3 NNW 26 39 14 21 1013.4 1008.0 0.0
11/07:00pm 33.8 29.4 11.6 26 13.4 NNW 26 39 14 21 1012.9 1007.4 0.0
11/06:30pm 34.4 29.9 11.5 25 13.9 NNW 26 39 14 21 1012.5 1007.0 0.0
11/06:00pm 35.2 30.2 10.9 23 14.6 NNW 28 46 15 25 1012.1 1006.7 0.0
11/05:52pm 35.5 30.6 11.2 23 14.7 NNW 28 46 15 25 1012.0 1006.6 0.0
11/05:30pm 36.0 30.6 10.9 22 15.2 N 30 41 16 22 1011.8 1006.3 0.0
11/05:14pm 36.3 31.4 11.2 22 15.2 NNW 28 46 15 25 1011.6 - 0.0
11/05:13pm 36.3 31.4 11.2 22 15.2 NNW 28 46 15 25 1011.6 1006.1 0.0
11/05:00pm 36.3 30.4 10.5 21 15.5 NNW 32 46 17 25 1011.6 1006.1 0.0
11/04:30pm 36.8 32.2 10.9 21 15.7 NNW 26 43 14 23 1011.4 1005.9 0.0
11/04:25pm 36.8 31.8 10.9 21 15.7 NNW 28 46 15 25 1011.5 - 0.0
11/04:09pm 37.0 31.8 10.3 20 16.0 NW 28 46 15 25 1011.4 1005.9 0.0
11/04:00pm 36.6 31.1 10.7 21 15.6 NNW 30 46 16 25 1011.6 1006.1 0.0
11/03:37pm 37.4 31.6 10.7 20 16.2 NNW 32 50 17 27 1011.4 1005.9 0.0
11/03:36pm 37.5 32.0 10.7 20 16.2 NNW 30 48 16 26 1011.6 - 0.0
11/03:30pm 37.0 31.1 10.3 20 16.0 NNW 32 44 17 24 1011.7 1006.2 0.0
11/03:20pm 37.0 32.0 11.1 21 15.7 NNW 28 46 15 25 1011.6 1006.1 0.0
11/03:00pm 37.4 33.1 12.1 22 15.6 NNW 26 39 14 21 1011.7 1006.2 0.0
11/02:42pm 36.4 31.7 11.9 23 15.0 NNW 28 46 15 25 1011.8 1006.3 0.0
11/02:30pm 36.5 30.8 11.3 22 15.3 NW 32 46 17 25 1011.9 1006.5 0.0
11/02:00pm 36.7 31.5 11.5 22 15.4 NNW 30 50 16 27 1012.4 1006.9 0.0
11/01:50pm 37.0 31.7 11.1 21 15.7 NNW 30 48 16 26 1012.4 - 0.0
11/01:49pm 37.1 32.1 11.1 21 15.8 NNW 28 46 15 25 1012.4 1006.9 0.0
11/01:30pm 36.9 32.1 11.7 22 15.4 NNW 28 44 15 24 1012.6 1007.1 0.0
11/01:00pm 36.7 32.1 12.2 23 15.1 N 28 43 15 23 1012.9 1007.4 0.0
11/12:30pm 36.7 33.4 12.8 24 14.9 NNW 22 37 12 20 1013.2 1007.7 0.0
11/12:00pm 34.8 30.8 13.0 26 13.5 N 26 39 14 21 1013.7 1008.3 0.0
11/11:30am 34.5 31.7 13.3 27 13.2 N 20 32 11 17 1014.2 1008.7 0.0
11/11:00am 34.1 31.6 14.1 30 12.6 NNW 20 28 11 15 1014.5 1009.0 0.0
11/10:30am 33.2 31.3 14.3 32 11.9 N 17 24 9 13 1015.0 1009.6 0.0
11/10:00am 31.6 29.6 13.8 34 11.0 NNE 17 20 9 11 1015.3 1009.9 0.0
11/09:30am 31.7 29.6 13.5 33 11.2 N 17 30 9 16 1015.7 1010.2 0.0
11/09:00am 31.3 29.6 13.6 34 10.9 NNE 15 28 8 15 1015.8 1010.3 0.0
11/08:30am 30.6 28.8 13.4 35 10.6 NE 15 20 8 11 1015.9 1010.4 0.0
11/08:00am 30.1 29.6 13.8 37 10.0 ESE 9 17 5 9 1015.9 1010.4 0.0
11/07:30am 29.2 29.1 15.0 42 8.9 SSE 9 13 5 7 1015.9 1010.4 0.0
11/07:00am 29.0 30.6 14.8 42 8.8 CALM 0 0 0 0 1015.7 1010.2 0.0
11/06:30am 27.7 29.3 15.0 45 7.9 CALM 0 0 0 0 1015.5 1010.1 0.0
11/06:00am 26.0 27.8 15.4 52 6.6 CALM 0 0 0 0 1014.9 1009.5 0.0
11/05:30am 25.1 26.5 15.4 55 6.0 W 2 6 1 3 1014.6 1009.1 0.0
11/05:00am 25.1 25.7 15.4 55 6.0 W 6 9 3 5 1014.1 1008.6 0.0
11/04:30am 25.4 25.5 15.4 54 6.2 WNW 9 11 5 6 1013.6 1008.2 0.0
11/04:00am 25.9 26.0 15.6 53 6.4 WNW 9 11 5 6 1013.5 1008.1 0.0
11/03:30am 26.1 25.6 15.8 53 6.5 WNW 13 13 7 7 1013.4 1008.0 0.0
11/03:00am 26.4 27.0 15.8 52 6.6 W 7 11 4 6 1013.5 1008.1 0.0
11/02:30am 26.7 27.6 16.0 52 6.7 WNW 6 13 3 7 1013.4 1008.0 0.0
11/02:00am 26.9 27.2 15.9 51 6.9 NNW 9 15 5 8 1013.5 1008.1 0.0
11/01:30am 27.2 27.6 16.2 51 7.0 NNW 9 15 5 8 1013.7 1008.3 0.0
11/01:00am 27.4 27.2 15.7 48 7.4 N 11 17 6 9 1014.0 1008.5 0.0
11/12:30am 27.9 27.0 15.9 48 7.6 N 15 22 8 12 1014.2 1008.7 0.0
11/12:00am 28.0 27.4 15.6 46 7.8 NNW 13 20 7 11 1014.3 1008.8 0.0
 
Date/Time
WST
Temp
°C
App
Temp
°C
Dew
Point
°C
Rel
Hum
%
Delta-T
°C
Wind Press
QNH
hPa
Press
MSL
hPa
Rain since
9am
mm
Dir  Spd
km/h
Gust
km/h
Spd
kts
Gust
kts
10/11:30pm 28.3 28.1 15.6 46 8.0 NNW 11 17 6 9 1014.7 1009.2 0.0
10/11:00pm 28.6 27.2 15.5 45 8.2 N 17 24 9 13 1014.7 1009.2 0.0
10/10:30pm 29.0 27.0 15.5 44 8.5 N 20 30 11 16 1014.8 1009.3 0.0
10/10:00pm 29.5 26.8 15.6 43 8.8 N 24 32 13 17 1014.8 1009.3 0.0
10/09:30pm 30.1 26.9 15.4 41 9.3 N 26 35 14 19 1014.8 1009.3 0.0
10/09:00pm 31.0 28.7 14.6 37 10.3 N 20 30 11 16 1014.6 1009.1 0.0
10/08:30pm 32.3 29.3 12.5 30 12.1 NNW 20 26 11 14 1014.3 1008.8 0.0
10/08:00pm 32.5 30.0 12.2 29 12.3 NNW 17 24 9 13 1014.0 1008.5 0.0
10/07:30pm 32.9 29.5 12.5 29 12.5 NNW 22 35 12 19 1013.5 1008.1 0.0
10/07:00pm 33.3 29.3 12.9 29 12.6 N 26 35 14 19 1013.1 1007.6 0.0
10/06:30pm 33.7 29.4 13.2 29 12.7 N 28 39 15 21 1012.6 1007.1 0.0
10/06:00pm 34.3 30.0 13.2 28 13.1 N 28 39 15 21 1012.1 1006.7 0.0
10/05:30pm 35.0 30.7 14.3 29 13.1 NNW 30 46 16 25 1011.7 1006.2 0.0
10/05:22pm 34.8 30.8 14.1 28 13.0 N 28 46 15 25 1011.7 1006.2 0.0
10/05:00pm 35.1 30.4 14.4 29 13.1 NNW 32 46 17 25 1011.6 1006.1 0.0
10/04:46pm 35.5 31.5 14.2 28 13.5 NNW 28 46 15 25 1011.4 1005.9 0.0
10/04:30pm 34.7 30.5 14.6 30 12.7 NNW 30 41 16 22 1011.4 1005.9 0.0
10/04:00pm 35.6 31.7 14.3 28 13.5 N 28 39 15 21 1011.4 1005.9 0.0
10/03:42pm 36.2 32.2 14.2 26 13.9 N 28 46 15 25 1011.3 1005.8 0.0
10/03:30pm 36.0 31.8 14.6 27 13.6 NNW 30 41 16 22 1011.5 1006.0 0.0
10/03:01pm 36.4 32.3 13.8 26 14.2 N 28 46 15 25 1011.5 1006.0 0.0
10/03:00pm 36.3 32.0 14.3 27 14.0 N 30 46 16 25 1011.5 1006.0 0.0
10/02:31pm 37.1 33.0 13.8 25 14.7 NNW 28 48 15 26 1011.4 1005.9 0.0
10/02:30pm 37.4 33.5 13.4 24 15.1 NNW 26 48 14 26 1011.5 1006.0 0.0
10/02:00pm 36.7 33.2 13.5 25 14.6 N 24 37 13 20 1011.4 1005.9 0.0
10/01:30pm 37.5 33.3 13.5 24 15.1 NNW 28 44 15 24 1011.8 1006.3 0.0
10/01:28pm 37.6 34.2 13.6 24 15.1 NNW 24 44 13 24 1011.7 1006.2 0.0
10/01:00pm 35.9 33.2 14.5 27 13.6 N 22 46 12 25 1012.0 1006.6 0.0
10/12:30pm 35.5 32.5 13.6 26 13.7 N 22 39 12 21 1012.3 1006.8 0.0
10/12:00pm 35.4 32.3 14.6 28 13.2 N 24 35 13 19 1012.5 1007.0 0.0
10/11:30am 34.7 31.2 14.6 30 12.7 NNE 26 39 14 21 1012.8 1007.3 0.0
10/11:00am 34.3 31.8 14.2 29 12.7 NNE 20 35 11 19 1013.0 1007.5 0.0
10/10:30am 34.0 30.7 14.0 30 12.5 NNE 24 37 13 20 1013.4 1008.0 0.0
10/10:00am 34.3 32.0 14.7 30 12.4 N 20 33 11 18 1013.6 1008.2 0.0
10/09:30am 33.0 31.4 15.0 33 11.4 NNE 17 28 9 15 1013.7 1008.3 0.0
10/09:00am 31.6 30.9 15.5 37 10.2 NNE 13 20 7 11 1013.8 1008.4 0.0
10/08:30am 31.1 30.9 16.7 42 9.3 NE 13 20 7 11 1014.1 1008.6 0.0
10/08:00am 30.4 29.5 16.8 44 8.8 NNE 17 24 9 13 1013.7 1008.3 0.0
10/07:30am 30.6 32.5 16.6 43 9.0 NNE 2 7 1 4 1013.4 1008.0 0.0
10/07:00am 28.6 30.2 16.8 48 7.6 WNW 4 11 2 6 1013.1 1007.6 0.0
10/06:30am 27.5 29.8 16.8 52 6.8 CALM 0 6 0 3 1012.6 1007.1 0.0
10/06:00am 27.3 28.4 16.6 52 6.8 WNW 6 7 3 4 1012.3 1006.8 0.0
10/05:30am 27.3 29.4 16.3 51 7.0 CALM 0 6 0 3 1011.8 1006.3 0.0
10/05:00am 27.5 29.5 16.1 49 7.2 CALM 0 0 0 0 1011.5 1006.0 0.0
10/04:30am 28.2 29.4 15.8 47 7.8 W 4 7 2 4 1011.3 1005.8 0.0
10/04:00am 28.8 29.5 16.0 45 8.1 W 7 9 4 5 1011.1 1005.6 0.0
10/03:30am 29.2 29.5 16.0 44 8.4 WNW 9 15 5 8 1011.0 1005.5 0.0
10/03:00am 29.4 28.9 15.9 44 8.6 W 13 15 7 8 1010.8 1005.3 0.0
10/02:30am 29.7 28.6 15.4 42 9.0 W 15 19 8 10 1010.7 1005.2 0.0
10/02:00am 29.7 28.7 14.7 40 9.4 W 13 17 7 9 1010.7 1005.2 0.0
10/01:30am 30.3 29.2 14.4 38 9.9 WNW 13 17 7 9 1010.7 1005.2 0.0
10/01:00am 30.8 29.6 14.0 36 10.4 WNW 13 19 7 10 1010.9 1005.4 0.0
10/12:30am 31.4 30.1 13.6 33 11.0 WNW 13 17 7 9 1011.1 1005.6 0.0
10/12:00am 31.7 30.2 13.0 32 11.5 WNW 13 19 7 10 1011.3 1005.8 0.0
 
Date/Time
WST
Temp
°C
App
Temp
°C
Dew
Point
°C
Rel
Hum
%
Delta-T
°C
Wind Press
QNH
hPa
Press
MSL
hPa
Rain since
9am
mm
Dir  Spd
km/h
Gust
km/h
Spd
kts
Gust
kts
09/11:30pm 32.4 29.8 13.1 31 11.9 NW 19 24 10 13 1011.4 1005.9 0.0
09/11:00pm 32.7 30.0 13.4 31 11.9 NW 20 28 11 15 1011.6 1006.1 0.0
09/10:30pm 32.9 30.4 14.0 32 11.8 NW 20 28 11 15 1011.7 1006.2 0.0

Other Formats:

Comma delimited format used in spreadsheet applications
http://www.bom.gov.au/fwo/IDW60801/IDW60801.99313.axf

JavaScript Object Notation format (JSON) in row-major order
http://www.bom.gov.au/fwo/IDW60801/IDW60801.99313.json